Time;durP1;ratioP1;P1;durP2;ratioP2;P2;SDS_P1;SDS_P2;PMS_P1;PMS_P2;Temp;Humidity;BMP_temperature;BMP_pressure;BME280_temperature;BME280_humidity;BME280_pressure;Samples;Min_cycle;Max_cycle;Signal;HPM_P1;HPM_P2
2023/08/11 00:01:42;;;;;;;;;;;;;;;;;;4840266;29;19991;-91
2023/08/11 00:04:08;;;;;;;;;;;;;;;;;;4850791;29;20391;-90
2023/08/11 00:06:33;;;;;;;;;;;;;;;;;;4852349;29;19927;-90
2023/08/11 00:09:00;;;;;;;;;;;;;;;;;;4857828;29;19927;-91
2023/08/11 00:11:26;;;;;;;;;;;;;;;;;;4852617;29;20923;-91
2023/08/11 00:13:52;;;;;;;;;;;;;;;;;;4874676;29;20360;-91
2023/08/11 00:16:18;;;;;;;;;;;;;;;;;;4852862;29;20402;-90
2023/08/11 00:18:45;;;;;;;;;;;;;;;;;;4858418;29;19971;-91
2023/08/11 00:21:12;;;;;;;;;;;;;;;;;;4854806;29;20124;-91
2023/08/11 00:23:39;;;;;;;;;;;;;;;;;;4854861;29;20006;-90
2023/08/11 00:26:05;;;;;;;;;;;;;;;;;;4876105;29;19945;-91
2023/08/11 00:28:31;;;;;;;;;;;;;;;;;;4854847;29;20534;-91
2023/08/11 00:30:57;;;;;;;;;;;;;;;;;;4846813;29;19932;-90
2023/08/11 00:33:23;;;;;;;;;;;;;;;;;;4861493;29;19935;-91
2023/08/11 00:35:49;;;;;;;;;;;;;;;;;;4854542;29;19927;-91
2023/08/11 00:38:15;;;;;;;;;;;;;;;;;;4838234;29;19954;-91
2023/08/11 00:40:42;;;;;;;;;;;;;;;;;;4860607;29;19924;-92
2023/08/11 00:43:07;;;;;;;;;;;;;;;;;;4847804;29;20009;-91
2023/08/11 00:45:33;;;;;;;;;;;;;;;;;;4871862;29;19970;-90
2023/08/11 00:48:00;;;;;;;;;;;;;;;;;;4841534;29;20414;-90
2023/08/11 00:50:26;;;;;;;;;;;;;;;;;;4851791;29;19931;-91
2023/08/11 00:52:52;;;;;;;;;;;;;;;;;;4857790;29;19939;-91
2023/08/11 00:55:18;;;;;;;;;;;;;;;;;;4852042;29;19927;-91
2023/08/11 00:57:44;;;;;;;;;;;;;;;;;;4840889;29;19928;-91
2023/08/11 01:00:16;;;;;;;;;;;;;;;;;;4857862;29;19928;-91
2023/08/11 01:02:42;;;;;;;;;;;;;;;;;;4856397;29;20011;-91
2023/08/11 01:05:08;;;;;;;;;;;;;;;;;;4841281;29;20491;-91
2023/08/11 01:07:34;;;;;;;;;;;;;;;;;;4849682;29;20026;-91
2023/08/11 01:10:00;;;;;;;;;;;;;;;;;;4842598;29;19950;-90
2023/08/11 01:12:26;;;;;;;;;;;;;;;;;;4855050;29;19935;-90
2023/08/11 01:14:52;;;;;;;;;;;;;;;;;;4857640;29;20446;-90
2023/08/11 01:17:18;;;;;;;;;;;;;;;;;;4858113;29;19934;-91
2023/08/11 01:19:44;;;;;;;;;;;;;;;;;;4880438;29;20428;-91
2023/08/11 01:22:10;;;;;;;;;;;;;;;;;;4843201;29;19932;-91
2023/08/11 01:24:36;;;;;;;;;;;;;;;;;;4838073;29;20339;-90
2023/08/11 01:27:02;;;;;;;;;;;;;;;;;;4859487;29;19928;-90
2023/08/11 01:29:29;;;;;;;;;;;;;;;;;;4869880;29;20295;-90
2023/08/11 01:31:55;;;;;;;;;;;;;;;;;;4879716;29;20382;-90
2023/08/11 01:34:21;;;;;;;;;;;;;;;;;;4856311;29;19936;-90
2023/08/11 01:36:47;;;;;;;;;;;;;;;;;;4846985;29;20446;-91
2023/08/11 01:39:13;;;;;;;;;;;;;;;;;;4860210;29;19932;-91
2023/08/11 01:41:39;;;;;;;;;;;;;;;;;;4882184;29;19927;-90
2023/08/11 01:44:08;;;;;;;;;;;;;;;;;;4858574;29;20181;-91
2023/08/11 01:46:34;;;;;;;;;;;;;;;;;;4854271;29;19995;-91
2023/08/11 01:49:00;;;;;;;;;;;;;;;;;;4844171;29;20323;-91
2023/08/11 01:51:26;;;;;;;;;;;;;;;;;;4838283;29;19924;-91
2023/08/11 01:53:52;;;;;;;;;;;;;;;;;;4842530;29;20544;-91
2023/08/11 01:56:18;;;;;;;;;;;;;;;;;;4853509;29;19932;-90
2023/08/11 01:58:44;;;;;;;;;;;;;;;;;;4858228;29;19927;-90
2023/08/11 02:01:13;;;;;;;;;;;;;;;;;;4848006;29;19931;-91
2023/08/11 02:03:39;;;;;;;;;;;;;;;;;;4863658;29;19931;-90
2023/08/11 02:06:05;;;;;;;;;;;;;;;;;;4874342;29;19950;-91
2023/08/11 02:08:31;;;;;;;;;;;;;;;;;;4840294;29;20842;-90
2023/08/11 02:10:57;;;;;;;;;;;;;;;;;;4861893;29;20387;-91
2023/08/11 02:13:23;;;;;;;;;;;;;;;;;;4839452;29;20022;-91
2023/08/11 02:15:49;;;;;;;;;;;;;;;;;;4859753;29;19928;-90
2023/08/11 02:18:15;;;;;;;;;;;;;;;;;;4841568;29;19932;-90
2023/08/11 02:20:41;;;;;;;;;;;;;;;;;;4878343;29;19932;-91
2023/08/11 02:23:08;;;;;;;;;;;;;;;;;;4843337;29;20398;-91
2023/08/11 02:25:34;;;;;;;;;;;;;;;;;;4857904;29;19977;-90
2023/08/11 02:28:00;;;;;;;;;;;;;;;;;;4863097;29;20018;-90
2023/08/11 02:30:29;;;;;;;;;;;;;;;;;;4837840;29;20016;-90
2023/08/11 02:32:55;;;;;;;;;;;;;;;;;;4840550;29;19936;-91
2023/08/11 02:35:21;;;;;;;;;;;;;;;;;;4855245;29;19939;-91
2023/08/11 02:37:47;;;;;;;;;;;;;;;;;;4843498;29;19935;-91
2023/08/11 02:40:19;;;;;;;;;;;;;;;;;;4857254;29;19928;-91
2023/08/11 02:42:48;;;;;;;;;;;;;;;;;;4875517;29;20306;-92
2023/08/11 02:45:15;;;;;;;;;;;;;;;;;;4855500;29;20487;-90
2023/08/11 02:47:43;;;;;;;;;;;;;;;;;;4861067;29;20011;-90
2023/08/11 02:50:09;;;;;;;;;;;;;;;;;;4858866;29;19924;-91
2023/08/11 02:52:35;;;;;;;;;;;;;;;;;;4851944;29;19952;-91
2023/08/11 02:55:02;;;;;;;;;;;;;;;;;;4873319;29;19962;-91
2023/08/11 02:57:28;;;;;;;;;;;;;;;;;;4841782;29;20027;-90
2023/08/11 02:59:54;;;;;;;;;;;;;;;;;;4848049;29;19999;-90
2023/08/11 03:02:20;;;;;;;;;;;;;;;;;;4841685;29;19931;-90
2023/08/11 03:04:47;;;;;;;;;;;;;;;;;;4855827;29;19947;-90
2023/08/11 03:07:13;;;;;;;;;;;;;;;;;;4853801;29;20026;-91
2023/08/11 03:09:39;;;;;;;;;;;;;;;;;;4848085;29;19938;-91
2023/08/11 03:12:06;;;;;;;;;;;;;;;;;;4858065;29;19939;-91
2023/08/11 03:14:31;;;;;;;;;;;;;;;;;;4852335;29;19938;-91
2023/08/11 03:17:00;;;;;;;;;;;;;;;;;;4859624;29;19932;-91
2023/08/11 03:19:26;;;;;;;;;;;;;;;;;;4854850;29;19928;-90
2023/08/11 03:22:02;;;;;;;;;;;;;;;;;;4854755;29;20295;-90
2023/08/11 03:24:28;;;;;;;;;;;;;;;;;;4839949;29;19928;-90
2023/08/11 03:26:54;;;;;;;;;;;;;;;;;;4864941;29;20013;-91
2023/08/11 03:29:20;;;;;;;;;;;;;;;;;;4839337;29;19978;-91
2023/08/11 03:31:46;;;;;;;;;;;;;;;;;;4844661;29;19927;-91
2023/08/11 03:34:12;;;;;;;;;;;;;;;;;;4854955;29;19944;-91
2023/08/11 03:36:38;;;;;;;;;;;;;;;;;;4843358;29;19970;-91
2023/08/11 03:39:03;;;;;;;;;;;;;;;;;;4870346;29;20002;-90
2023/08/11 03:41:29;;;;;;;;;;;;;;;;;;4870786;29;19931;-90
2023/08/11 03:43:55;;;;;;;;;;;;;;;;;;4862249;29;19920;-91
2023/08/11 03:46:21;;;;;;;;;;;;;;;;;;4844799;29;20387;-90
2023/08/11 03:48:47;;;;;;;;;;;;;;;;;;4855465;29;22757;-90
2023/08/11 03:51:13;;;;;;;;;;;;;;;;;;4839766;29;20271;-91
2023/08/11 03:53:39;;;;;;;;;;;;;;;;;;4860671;29;19936;-91
2023/08/11 03:56:08;;;;;;;;;;;;;;;;;;4856861;29;20354;-91
2023/08/11 03:58:35;;;;;;;;;;;;;;;;;;4856122;29;19928;-90
2023/08/11 04:01:01;;;;;;;;;;;;;;;;;;4858835;29;19927;-91
2023/08/11 04:03:30;;;;;;;;;;;;;;;;;;4855235;29;19934;-91
2023/08/11 04:05:56;;;;;;;;;;;;;;;;;;4857535;29;20014;-90
2023/08/11 04:08:22;;;;;;;;;;;;;;;;;;4842846;29;20298;-91
2023/08/11 04:10:48;;;;;;;;;;;;;;;;;;4843769;29;19924;-91
2023/08/11 04:13:14;;;;;;;;;;;;;;;;;;4854761;29;20052;-91
2023/08/11 04:15:40;;;;;;;;;;;;;;;;;;4856038;29;20283;-91
2023/08/11 04:18:06;;;;;;;;;;;;;;;;;;4844364;29;20014;-91
2023/08/11 04:20:33;;;;;;;;;;;;;;;;;;4856831;29;19938;-90
2023/08/11 04:22:59;;;;;;;;;;;;;;;;;;4851706;29;19934;-91
2023/08/11 04:25:25;;;;;;;;;;;;;;;;;;4868685;29;20463;-90
2023/08/11 04:27:51;;;;;;;;;;;;;;;;;;4858948;29;20009;-91
2023/08/11 04:30:17;;;;;;;;;;;;;;;;;;4856342;29;20026;-90
2023/08/11 04:32:43;;;;;;;;;;;;;;;;;;4880875;29;20007;-91
2023/08/11 04:35:09;;;;;;;;;;;;;;;;;;4865097;29;19935;-90
2023/08/11 04:37:35;;;;;;;;;;;;;;;;;;4858053;29;19931;-90
2023/08/11 04:40:05;;;;;;;;;;;;;;;;;;4847598;29;20010;-91
2023/08/11 04:42:31;;;;;;;;;;;;;;;;;;4846554;29;21879;-91
2023/08/11 04:44:57;;;;;;;;;;;;;;;;;;4876296;29;19931;-90
2023/08/11 04:47:23;;;;;;;;;;;;;;;;;;4842779;29;19931;-90
2023/08/11 04:49:49;;;;;;;;;;;;;;;;;;4862915;29;19975;-91
2023/08/11 04:52:15;;;;;;;;;;;;;;;;;;4839283;29;20414;-90
2023/08/11 04:54:41;;;;;;;;;;;;;;;;;;4840720;29;20352;-90
2023/08/11 04:57:07;;;;;;;;;;;;;;;;;;4871853;29;19998;-91
2023/08/11 04:59:33;;;;;;;;;;;;;;;;;;4854831;29;19931;-91
2023/08/11 05:02:00;;;;;;;;;;;;;;;;;;4856003;29;19927;-90
2023/08/11 05:04:26;;;;;;;;;;;;;;;;;;4837824;29;19945;-90
2023/08/11 05:06:51;;;;;;;;;;;;;;;;;;4855389;29;19939;-91
2023/08/11 05:09:17;;;;;;;;;;;;;;;;;;4848119;29;20421;-90
2023/08/11 05:11:43;;;;;;;;;;;;;;;;;;4859308;29;19927;-90
2023/08/11 05:14:09;;;;;;;;;;;;;;;;;;4841503;29;20011;-90
2023/08/11 05:16:35;;;;;;;;;;;;;;;;;;4856260;29;19934;-91
2023/08/11 05:19:01;;;;;;;;;;;;;;;;;;4843446;29;20043;-91
2023/08/11 05:21:27;;;;;;;;;;;;;;;;;;4852432;29;19928;-90
2023/08/11 05:23:53;;;;;;;;;;;;;;;;;;4847185;29;20331;-91
2023/08/11 05:26:19;;;;;;;;;;;;;;;;;;4857927;29;19983;-91
2023/08/11 05:28:45;;;;;;;;;;;;;;;;;;4844675;29;20038;-90
2023/08/11 05:31:11;;;;;;;;;;;;;;;;;;4860905;29;20402;-90
2023/08/11 05:33:38;;;;;;;;;;;;;;;;;;4859211;29;20311;-90
2023/08/11 05:36:04;;;;;;;;;;;;;;;;;;4872592;29;19969;-91
2023/08/11 05:38:30;;;;;;;;;;;;;;;;;;4848725;29;20692;-90
2023/08/11 05:40:56;;;;;;;;;;;;;;;;;;4862049;29;20371;-91
2023/08/11 05:43:22;;;;;;;;;;;;;;;;;;4870358;29;19935;-90
2023/08/11 05:45:48;;;;;;;;;;;;;;;;;;4846703;29;20263;-91
2023/08/11 05:48:14;;;;;;;;;;;;;;;;;;4876082;29;19966;-90
2023/08/11 05:50:40;;;;;;;;;;;;;;;;;;4847922;29;19924;-91
2023/08/11 05:53:06;;;;;;;;;;;;;;;;;;4855610;29;19931;-91
2023/08/11 05:55:32;;;;;;;;;;;;;;;;;;4842421;29;19931;-90
2023/08/11 05:57:58;;;;;;;;;;;;;;;;;;4856749;29;20066;-91
2023/08/11 06:00:24;;;;;;;;;;;;;;;;;;4851897;29;19950;-90
2023/08/11 06:02:53;;;;;;;;;;;;;;;;;;4860224;29;19980;-91
2023/08/11 06:05:21;;;;;;;;;;;;;;;;;;4855599;29;19983;-92
2023/08/11 06:07:47;;;;;;;;;;;;;;;;;;4860522;29;20392;-90
2023/08/11 06:10:13;;;;;;;;;;;;;;;;;;4854932;29;20311;-90
2023/08/11 06:12:39;;;;;;;;;;;;;;;;;;4846034;29;19928;-90
2023/08/11 06:15:06;;;;;;;;;;;;;;;;;;4875955;29;20070;-91
2023/08/11 06:17:32;;;;;;;;;;;;;;;;;;4856199;29;20904;-90
2023/08/11 06:19:58;;;;;;;;;;;;;;;;;;4858994;29;19928;-91
2023/08/11 06:22:24;;;;;;;;;;;;;;;;;;4840867;29;19939;-90
2023/08/11 06:24:50;;;;;;;;;;;;;;;;;;4876145;29;21245;-91
2023/08/11 06:27:16;;;;;;;;;;;;;;;;;;4854269;29;19931;-91
2023/08/11 06:29:42;;;;;;;;;;;;;;;;;;4864671;29;19931;-91
2023/08/11 06:32:08;;;;;;;;;;;;;;;;;;4875618;29;19931;-90
2023/08/11 06:34:33;;;;;;;;;;;;;;;;;;4873632;29;20463;-90
2023/08/11 06:36:59;;;;;;;;;;;;;;;;;;4858352;29;20410;-90
2023/08/11 06:39:25;;;;;;;;;;;;;;;;;;4841934;29;20026;-91
2023/08/11 06:41:51;;;;;;;;;;;;;;;;;;4859865;29;19928;-91
2023/08/11 06:44:17;;;;;;;;;;;;;;;;;;4852359;29;19956;-90
2023/08/11 06:46:43;;;;;;;;;;;;;;;;;;4876139;29;20431;-91
2023/08/11 06:49:09;;;;;;;;;;;;;;;;;;4860178;29;19927;-90
2023/08/11 06:51:35;;;;;;;;;;;;;;;;;;4841571;29;19934;-90
2023/08/11 06:54:01;;;;;;;;;;;;;;;;;;4857320;29;19931;-90
2023/08/11 06:56:27;;;;;;;;;;;;;;;;;;4856202;29;19971;-90
2023/08/11 06:58:53;;;;;;;;;;;;;;;;;;4862683;29;19927;-91
2023/08/11 07:01:19;;;;;;;;;;;;;;;;;;4859119;29;20387;-91
2023/08/11 07:03:57;;;;;;;;;;;;;;;;;;4860362;29;20453;-91
2023/08/11 07:06:23;;;;;;;;;;;;;;;;;;4851163;29;19931;-91
2023/08/11 07:08:49;;;;;;;;;;;;;;;;;;4864207;29;20501;-91
2023/08/11 07:11:15;;;;;;;;;;;;;;;;;;4852342;29;19960;-90
2023/08/11 07:13:41;;;;;;;;;;;;;;;;;;4860525;29;20003;-91
2023/08/11 07:16:07;;;;;;;;;;;;;;;;;;4858758;29;20019;-90
2023/08/11 07:18:33;;;;;;;;;;;;;;;;;;4839407;29;19946;-90
2023/08/11 07:20:59;;;;;;;;;;;;;;;;;;4841343;29;19927;-94
2023/08/11 07:23:25;;;;;;;;;;;;;;;;;;4853677;29;20110;-91
2023/08/11 07:25:51;;;;;;;;;;;;;;;;;;4851939;29;20428;-90
2023/08/11 07:28:17;;;;;;;;;;;;;;;;;;4835827;29;19927;-91
2023/08/11 07:30:43;;;;;;;;;;;;;;;;;;4841674;29;19959;-90
2023/08/11 07:33:09;;;;;;;;;;;;;;;;;;4855604;29;19999;-91
2023/08/11 07:35:35;;;;;;;;;;;;;;;;;;4838549;29;19935;-91
2023/08/11 07:38:01;;;;;;;;;;;;;;;;;;4838181;29;20425;-91
2023/08/11 07:40:27;;;;;;;;;;;;;;;;;;4836434;29;19984;-91
2023/08/11 07:42:53;;;;;;;;;;;;;;;;;;4860131;29;19932;-91
2023/08/11 07:45:19;;;;;;;;;;;;;;;;;;4867736;29;19930;-91
2023/08/11 07:47:45;;;;;;;;;;;;;;;;;;4853131;29;20374;-91
2023/08/11 07:50:12;;;;;;;;;;;;;;;;;;4855396;29;19938;-92
2023/08/11 07:52:38;;;;;;;;;;;;;;;;;;4856257;29;20336;-91
2023/08/11 07:55:04;;;;;;;;;;;;;;;;;;4841211;29;19935;-92
2023/08/11 07:57:30;;;;;;;;;;;;;;;;;;4849412;29;20979;-93
2023/08/11 07:59:57;;;;;;;;;;;;;;;;;;4875480;29;19991;-91
2023/08/11 08:02:23;;;;;;;;;;;;;;;;;;4843039;29;20431;-91
2023/08/11 08:04:49;;;;;;;;;;;;;;;;;;4864561;29;19975;-91
2023/08/11 08:07:15;;;;;;;;;;;;;;;;;;4837268;29;20310;-92
2023/08/11 08:09:41;;;;;;;;;;;;;;;;;;4855057;29;20014;-92
2023/08/11 08:12:06;;;;;;;;;;;;;;;;;;4844808;29;19927;-92
2023/08/11 08:14:32;;;;;;;;;;;;;;;;;;4856593;29;19934;-92
2023/08/11 08:17:01;;;;;;;;;;;;;;;;;;4855105;29;20638;-91
2023/08/11 08:19:27;;;;;;;;;;;;;;;;;;4854715;29;19967;-91
2023/08/11 08:21:53;;;;;;;;;;;;;;;;;;4856643;29;20442;-92
2023/08/11 08:24:19;;;;;;;;;;;;;;;;;;4854146;29;19932;-91
2023/08/11 08:26:47;;;;;;;;;;;;;;;;;;4854956;29;20371;-93
2023/08/11 08:29:14;;;;;;;;;;;;;;;;;;4838912;29;19928;-92
2023/08/11 08:31:40;;;;;;;;;;;;;;;;;;4853084;29;19934;-92
2023/08/11 08:34:06;;;;;;;;;;;;;;;;;;4776003;29;1868760;-93
2023/08/11 08:36:32;;;;;;;;;;;;;;;;;;4855287;29;19932;-91
2023/08/11 08:38:58;;;;;;;;;;;;;;;;;;4854361;29;19939;-92
2023/08/11 08:41:24;;;;;;;;;;;;;;;;;;4853535;29;19936;-93
2023/08/11 08:43:50;;;;;;;;;;;;;;;;;;4867008;29;20298;-93
2023/08/11 08:46:16;;;;;;;;;;;;;;;;;;4842988;29;19996;-92
2023/08/11 08:48:41;;;;;;;;;;;;;;;;;;4855917;29;19989;-92
2023/08/11 08:51:07;;;;;;;;;;;;;;;;;;4855991;29;19967;-93
2023/08/11 08:53:33;;;;;;;;;;;;;;;;;;4858404;29;20387;-91
2023/08/11 08:56:04;;;;;;;;;;;;;;;;;;4846284;29;20034;-93
2023/08/11 08:58:30;;;;;;;;;;;;;;;;;;4853689;29;19931;-92
2023/08/11 09:00:56;;;;;;;;;;;;;;;;;;4842530;29;20544;-92
2023/08/11 09:03:22;;;;;;;;;;;;;;;;;;4849591;29;19939;-92
2023/08/11 09:05:48;;;;;;;;;;;;;;;;;;4841706;29;19954;-92
2023/08/11 09:08:14;;;;;;;;;;;;;;;;;;4856004;29;20019;-92
2023/08/11 09:10:40;;;;;;;;;;;;;;;;;;4859941;29;19932;-91
2023/08/11 09:13:06;;;;;;;;;;;;;;;;;;4847829;29;20038;-92
2023/08/11 09:15:32;;;;;;;;;;;;;;;;;;4838403;29;20371;-92
2023/08/11 09:17:58;;;;;;;;;;;;;;;;;;4858886;29;20006;-93
2023/08/11 09:20:25;;;;;;;;;;;;;;;;;;4844634;29;19931;-93
2023/08/11 09:22:51;;;;;;;;;;;;;;;;;;4848329;29;19932;-91
2023/08/11 09:25:17;;;;;;;;;;;;;;;;;;4836863;29;20591;-92
2023/08/11 09:27:43;;;;;;;;;;;;;;;;;;4854689;29;19923;-94
2023/08/11 09:30:10;;;;;;;;;;;;;;;;;;4852073;29;20000;-91
2023/08/11 09:32:36;;;;;;;;;;;;;;;;;;4856977;29;19928;-92
2023/08/11 09:35:03;;;;;;;;;;;;;;;;;;4849039;29;20412;-92
2023/08/11 09:37:29;;;;;;;;;;;;;;;;;;4865590;29;19931;-91
2023/08/11 09:39:57;;;;;;;;;;;;;;;;;;4857087;29;19931;-93
2023/08/11 09:42:24;;;;;;;;;;;;;;;;;;4856968;29;19927;-92
2023/08/11 09:44:50;;;;;;;;;;;;;;;;;;4858557;29;19927;-92
2023/08/11 09:47:16;;;;;;;;;;;;;;;;;;4849480;29;19938;-92
2023/08/11 09:49:42;;;;;;;;;;;;;;;;;;4871641;29;19980;-92
2023/08/11 09:52:08;;;;;;;;;;;;;;;;;;4861195;29;20467;-93
2023/08/11 09:54:34;;;;;;;;;;;;;;;;;;4861069;29;20084;-92
2023/08/11 09:57:00;;;;;;;;;;;;;;;;;;4864683;29;19983;-92
2023/08/11 09:59:26;;;;;;;;;;;;;;;;;;4839508;29;19935;-93
2023/08/11 10:01:52;;;;;;;;;;;;;;;;;;4852580;29;23045;-93
2023/08/11 10:04:18;;;;;;;;;;;;;;;;;;4846925;29;19976;-94
2023/08/11 10:06:44;;;;;;;;;;;;;;;;;;4854492;29;19983;-92
2023/08/11 10:09:12;;;;;;;;;;;;;;;;;;4862844;29;19942;-92
2023/08/11 10:11:38;;;;;;;;;;;;;;;;;;4858304;29;19945;-93
2023/08/11 10:14:04;;;;;;;;;;;;;;;;;;4864232;29;19931;-92
2023/08/11 10:16:30;;;;;;;;;;;;;;;;;;4846665;29;19927;-92
2023/08/11 10:18:56;;;;;;;;;;;;;;;;;;4860548;29;20268;-92
2023/08/11 10:21:22;;;;;;;;;;;;;;;;;;4854658;29;19938;-92
2023/08/11 10:23:48;;;;;;;;;;;;;;;;;;4845311;29;19931;-91
2023/08/11 10:26:14;;;;;;;;;;;;;;;;;;4872554;29;19932;-93
2023/08/11 10:28:40;;;;;;;;;;;;;;;;;;4833975;29;20423;-93
2023/08/11 10:31:06;;;;;;;;;;;;;;;;;;4851910;29;19938;-92
2023/08/11 10:33:32;;;;;;;;;;;;;;;;;;4840378;29;20050;-92
2023/08/11 10:35:58;;;;;;;;;;;;;;;;;;4862448;29;19931;-92
2023/08/11 10:38:24;;;;;;;;;;;;;;;;;;4855280;29;19927;-94
2023/08/11 10:40:50;;;;;;;;;;;;;;;;;;4844463;29;19928;-92
2023/08/11 10:43:16;;;;;;;;;;;;;;;;;;4838528;29;19939;-92
2023/08/11 10:45:43;;;;;;;;;;;;;;;;;;4860486;29;19935;-95
2023/08/11 10:48:09;;;;;;;;;;;;;;;;;;4837077;29;20064;-92
2023/08/11 10:50:35;;;;;;;;;;;;;;;;;;4838062;29;20282;-92
2023/08/11 10:53:01;;;;;;;;;;;;;;;;;;4847306;29;19934;-92
2023/08/11 10:55:27;;;;;;;;;;;;;;;;;;4864079;29;19927;-92
2023/08/11 10:57:53;;;;;;;;;;;;;;;;;;4848064;29;19934;-93
2023/08/11 11:00:19;;;;;;;;;;;;;;;;;;4839559;29;20080;-92
2023/08/11 11:02:45;;;;;;;;;;;;;;;;;;4846683;29;19927;-92
2023/08/11 11:05:13;;;;;;;;;;;;;;;;;;4862231;29;19931;-92
2023/08/11 11:07:39;;;;;;;;;;;;;;;;;;4855091;29;19923;-93
2023/08/11 11:10:05;;;;;;;;;;;;;;;;;;4854584;29;19932;-92
2023/08/11 11:12:32;;;;;;;;;;;;;;;;;;4848571;29;20939;-94
2023/08/11 11:14:58;;;;;;;;;;;;;;;;;;4862438;29;19939;-93
2023/08/11 11:17:24;;;;;;;;;;;;;;;;;;4841853;29;19924;-93
2023/08/11 11:19:50;;;;;;;;;;;;;;;;;;4849606;29;19928;-94
2023/08/11 11:22:16;;;;;;;;;;;;;;;;;;4839286;29;20418;-95
2023/08/11 11:24:44;;;;;;;;;;;;;;;;;;4854193;29;19970;-92
2023/08/11 11:27:10;;;;;;;;;;;;;;;;;;4861766;29;19931;-92
2023/08/11 11:29:39;;;;;;;;;;;;;;;;;;4866499;29;19960;-93
2023/08/11 11:32:06;;;;;;;;;;;;;;;;;;4845699;29;19924;-93
2023/08/11 11:34:32;;;;;;;;;;;;;;;;;;4835989;29;19979;-93
2023/08/11 11:36:59;;;;;;;;;;;;;;;;;;4855292;29;19927;-93
2023/08/11 11:39:25;;;;;;;;;;;;;;;;;;4854466;29;20010;-93
2023/08/11 11:41:51;;;;;;;;;;;;;;;;;;4851070;29;19920;-93
2023/08/11 11:44:17;;;;;;;;;;;;;;;;;;4854445;29;20989;-94
2023/08/11 11:46:43;;;;;;;;;;;;;;;;;;4856576;29;19983;-94
2023/08/11 11:49:09;;;;;;;;;;;;;;;;;;4867811;29;20018;-95
2023/08/11 11:51:35;;;;;;;;;;;;;;;;;;4853501;29;20443;-92
2023/08/11 11:54:01;;;;;;;;;;;;;;;;;;4842607;29;20208;-94
2023/08/11 11:56:27;;;;;;;;;;;;;;;;;;4860254;29;20322;-94
2023/08/11 11:58:53;;;;;;;;;;;;;;;;;;4846519;29;20451;-93
2023/08/11 12:01:19;;;;;;;;;;;;;;;;;;4853865;29;19950;-93
2023/08/11 12:03:45;;;;;;;;;;;;;;;;;;4851647;29;20393;-93
2023/08/11 12:06:12;;;;;;;;;;;;;;;;;;4852222;29;19935;-93
2023/08/11 12:08:39;;;;;;;;;;;;;;;;;;4858937;29;19927;-93
2023/08/11 12:11:05;;;;;;;;;;;;;;;;;;4840730;29;19947;-93
2023/08/11 12:13:31;;;;;;;;;;;;;;;;;;4851007;29;22088;-93
2023/08/11 12:15:57;;;;;;;;;;;;;;;;;;4855424;29;20843;-93
2023/08/11 12:18:23;;;;;;;;;;;;;;;;;;4863020;29;19927;-92
2023/08/11 12:20:49;;;;;;;;;;;;;;;;;;4847094;29;19932;-93
2023/08/11 12:23:15;;;;;;;;;;;;;;;;;;4851306;29;20361;-92
2023/08/11 12:25:41;;;;;;;;;;;;;;;;;;4839230;29;20432;-93
2023/08/11 12:28:07;;;;;;;;;;;;;;;;;;4845906;29;19938;-92
2023/08/11 12:30:33;;;;;;;;;;;;;;;;;;4840870;29;19932;-92
2023/08/11 12:32:59;;;;;;;;;;;;;;;;;;4857160;29;19932;-91
2023/08/11 12:35:25;;;;;;;;;;;;;;;;;;4863720;29;20095;-91
2023/08/11 12:37:51;;;;;;;;;;;;;;;;;;4837760;29;20383;-92
2023/08/11 12:40:18;;;;;;;;;;;;;;;;;;4855253;29;19985;-93
2023/08/11 12:42:44;;;;;;;;;;;;;;;;;;4861550;29;20340;-93
2023/08/11 12:45:11;;;;;;;;;;;;;;;;;;4869270;29;19923;-94
2023/08/11 12:47:37;;;;;;;;;;;;;;;;;;4855035;29;19935;-92
2023/08/11 12:50:03;;;;;;;;;;;;;;;;;;4856235;29;20015;-91
2023/08/11 12:52:29;;;;;;;;;;;;;;;;;;4849197;29;20001;-92
2023/08/11 12:54:55;;;;;;;;;;;;;;;;;;4868591;29;19924;-93
2023/08/11 12:57:21;;;;;;;;;;;;;;;;;;4851781;29;19987;-92
2023/08/11 12:59:47;;;;;;;;;;;;;;;;;;4865783;29;19935;-91
2023/08/11 13:02:13;;;;;;;;;;;;;;;;;;4854426;29;19935;-93
2023/08/11 13:04:39;;;;;;;;;;;;;;;;;;4850757;29;19983;-93
2023/08/11 13:07:05;;;;;;;;;;;;;;;;;;4847592;29;20418;-92
2023/08/11 13:09:31;;;;;;;;;;;;;;;;;;4859006;29;21868;-92
2023/08/11 13:11:57;;;;;;;;;;;;;;;;;;4865516;29;20017;-92
2023/08/11 13:14:23;;;;;;;;;;;;;;;;;;4861211;29;19958;-93
2023/08/11 13:16:49;;;;;;;;;;;;;;;;;;4850067;29;19928;-92
2023/08/11 13:19:15;;;;;;;;;;;;;;;;;;4861706;29;19934;-92
2023/08/11 13:21:41;;;;;;;;;;;;;;;;;;4852890;29;20014;-93
2023/08/11 13:24:07;;;;;;;;;;;;;;;;;;4859568;29;19929;-93
2023/08/11 13:26:33;;;;;;;;;;;;;;;;;;4867616;29;19927;-92
2023/08/11 13:28:59;;;;;;;;;;;;;;;;;;4849902;29;19980;-92
2023/08/11 13:31:25;;;;;;;;;;;;;;;;;;4845951;29;20752;-92
2023/08/11 13:33:51;;;;;;;;;;;;;;;;;;4849443;29;20291;-91
2023/08/11 13:36:17;;;;;;;;;;;;;;;;;;4854537;29;19943;-93
2023/08/11 13:38:43;;;;;;;;;;;;;;;;;;4857471;29;19930;-92
2023/08/11 13:41:10;;;;;;;;;;;;;;;;;;4861471;29;19935;-93
2023/08/11 13:43:39;;;;;;;;;;;;;;;;;;4845124;29;20599;-92
2023/08/11 13:46:05;;;;;;;;;;;;;;;;;;4848119;29;19930;-92
2023/08/11 13:48:31;;;;;;;;;;;;;;;;;;4843565;29;21516;-93
2023/08/11 13:50:57;;;;;;;;;;;;;;;;;;4865836;29;20399;-92
2023/08/11 13:53:23;;;;;;;;;;;;;;;;;;4846585;29;20415;-92
2023/08/11 13:55:49;;;;;;;;;;;;;;;;;;4855678;29;19927;-93
2023/08/11 13:58:15;;;;;;;;;;;;;;;;;;4851576;29;20418;-92
2023/08/11 14:00:41;;;;;;;;;;;;;;;;;;4856322;29;19927;-93
2023/08/11 14:03:07;;;;;;;;;;;;;;;;;;4857030;29;19954;-93
2023/08/11 14:05:34;;;;;;;;;;;;;;;;;;4870759;29;20030;-92
2023/08/11 14:08:00;;;;;;;;;;;;;;;;;;4874010;29;20067;-91
2023/08/11 14:10:26;;;;;;;;;;;;;;;;;;4873169;29;20367;-92
2023/08/11 14:12:52;;;;;;;;;;;;;;;;;;4857376;29;19935;-92
2023/08/11 14:15:18;;;;;;;;;;;;;;;;;;4841483;29;20287;-92
2023/08/11 14:17:44;;;;;;;;;;;;;;;;;;4851583;29;19924;-92
2023/08/11 14:20:13;;;;;;;;;;;;;;;;;;4870490;29;19931;-93
2023/08/11 14:22:39;;;;;;;;;;;;;;;;;;4864585;29;19928;-92
2023/08/11 14:25:05;;;;;;;;;;;;;;;;;;4849987;29;19935;-94
2023/08/11 14:27:31;;;;;;;;;;;;;;;;;;4844183;29;22149;-92
2023/08/11 14:29:57;;;;;;;;;;;;;;;;;;4854438;29;19923;-93
2023/08/11 14:32:23;;;;;;;;;;;;;;;;;;4842850;29;19932;-92
2023/08/11 14:34:49;;;;;;;;;;;;;;;;;;4847836;29;19934;-93
2023/08/11 14:37:15;;;;;;;;;;;;;;;;;;4859548;29;20373;-93
2023/08/11 14:39:41;;;;;;;;;;;;;;;;;;4840414;29;19939;-92
2023/08/11 14:42:10;;;;;;;;;;;;;;;;;;4844889;29;20335;-95
2023/08/11 14:44:36;;;;;;;;;;;;;;;;;;4853713;29;20878;-94
2023/08/11 14:47:02;;;;;;;;;;;;;;;;;;4844753;29;20390;-94
2023/08/11 14:49:28;;;;;;;;;;;;;;;;;;4840422;29;20010;-94
2023/08/11 14:51:54;;;;;;;;;;;;;;;;;;4847629;29;19923;-92
2023/08/11 14:54:24;;;;;;;;;;;;;;;;;;4861637;29;19942;-93
2023/08/11 14:56:50;;;;;;;;;;;;;;;;;;4838396;29;19927;-92
2023/08/11 14:59:16;;;;;;;;;;;;;;;;;;4854218;29;20434;-93
2023/08/11 15:01:58;;;;;;;;;;;;;;;;;;;;;
2023/08/11 15:53:27;;;;;;;;;;;;;;;;;;;;;
2023/08/11 16:09:19;;;;;;;;;;;;;;;;;;4763637;29;19945;-85
2023/08/11 16:25:06;;;;;;;;;;;;;;;;;;4714202;30;19934;-88
2023/08/11 16:27:57;;;;;;;;;;;;;;;;;;4701134;29;19937;-85
2023/08/11 16:44:55;;;;;;;;;;;;;;;;;;4899195;28;20022;-86
2023/08/11 16:59:44;;;;;;;;;;;;;;;;;;4821455;29;19932;-86
2023/08/11 17:05:59;;;;;;;;;;;;;;;;;;4827302;29;19932;-85
2023/08/11 17:14:46;;;;;;;;;;;;;;;;;;4847056;29;19968;-85
2023/08/11 17:17:46;;;;;;;;;;;;;;;;;;;;;
2023/08/11 17:30:00;;;;;;;;;;;;;;;;;;4759349;29;19988;-86
2023/08/11 17:32:36;;;;;;;;;;;;;;;;;;4778023;29;19931;-86
2023/08/11 17:38:37;;;;;;;;;;;;;;;;;;4803982;29;19928;-86
2023/08/11 17:41:26;;;;;;;;;;;;;;;;;;;;;
2023/08/11 17:47:09;;;;;;;;;;;;;;;;;;4842610;29;20035;-85
2023/08/11 17:50:07;;;;;;;;;;;;;;;;;;4843628;29;19961;-86
2023/08/11 17:52:52;;;;;;;;;;;;;;;;;;4828541;29;19930;-85
2023/08/11 17:55:32;;;;;;;;;;;;;;;;;;4810180;29;19935;-85
2023/08/11 17:58:06;;;;;;;;;;;;;;;;;;4826002;29;19940;-85
2023/08/11 18:04:01;;;;;;;;;;;;;;;;;;;;;
2023/08/11 18:09:30;;;;;;;;;;;;;;;;;;4840670;29;20326;-85
2023/08/11 18:12:03;;;;;;;;;;;;;;;;;;4825499;29;19943;-85
2023/08/11 18:14:32;;;;;;;;;;;;;;;;;;4820877;29;19963;-85
2023/08/11 18:17:00;;;;;;;;;;;;;;;;;;4834874;29;20068;-86
2023/08/11 18:19:29;;;;;;;;;;;;;;;;;;4878712;29;19927;-85
2023/08/11 18:24:48;;;;;;;;;;;;;;;;;;4892851;29;20002;-86
2023/08/11 18:27:14;;;;;;;;;;;;;;;;;;4885206;29;20354;-86
2023/08/11 18:30:11;;;;;;;;;;;;;;;;;;;;;
2023/08/11 18:41:16;;;;;;;;;;;;;;;;;;4983217;23;19938;-90
2023/08/11 18:44:00;;;;;;;;;;;;;;;;;;4880025;29;20065;-90
2023/08/11 18:46:31;;;;;;;;;;;;;;;;;;4895060;29;19991;-90
2023/08/11 20:15:38;;;;;;;;;;;;;;;;;;;;;
2023/08/11 20:41:40;;;;;;;;;;;;;;;;;;;;;
2023/08/11 20:47:34;;;;;;;;;;;;;;;;;;4895257;29;19985;-90
2023/08/11 20:53:22;;;;;;;;;;;;;;;;;;;;;
2023/08/11 20:56:09;;;;;;;;;;;;;;;;;;4899317;29;19938;-90
2023/08/11 21:02:19;;;;;;;;;;;;;;;;;;4820962;29;19935;-91
2023/08/11 21:05:04;;;;;;;;;;;;;;;;;;;;;
2023/08/11 21:23:21;;;;;;;;;;;;;;;;;;;;;
2023/08/11 21:26:36;;;;;;;;;;;;;;;;;;;;;
2023/08/11 21:32:25;;;;;;;;;;;;;;;;;;;;;
2023/08/11 22:02:53;;;;;;;;;;;;;;;;;;;;;
2023/08/11 22:08:22;;;;;;;;;;;;;;;;;;4858445;29;19935;-88
2023/08/11 22:11:07;;;;;;;;;;;;;;;;;;4861674;29;20007;-88
2023/08/11 22:13:33;;;;;;;;;;;;;;;;;;4861492;29;22504;-88